ΕΜΥ, Εθνική Μετεωρολογική Υπηρεσία - Δελτία Καιρού, Προγνώσεις

ΑΕΡΟΝΑΥΤΙΛΙΑ

GREEK AIRPORTS CODES

TAF LGTT 190700Z 1909/1918 20010KT 9999 FEW025 SCT050 BECMG 1912/1914 FEW020 BKN050 BECMG 1916/1918 VRB05KT PROB40 TEMPO 1914/1918 5000 RA FEW018TCU SCT025 BKN050 PROB30 TEMPO 1915/1918 4000 TSRA FEW018CB SCT020 BKN050=

EUROPEAN AIRPORTS CODES

LFPO 190800Z 27011KT 9999 SCT020 BKN033 BKN041 09/05 Q1019NOSIG=